sensor_id;sensor_type;location;lat;lon;timestamp;P1;P2;P0
34176;PMS7003;20450;49.074;9.158;2023-11-19T00:00:04;9.00;9.00;6.50
34176;PMS7003;20450;49.074;9.158;2023-11-19T00:02:34;3.00;3.00;3.00
34176;PMS7003;20450;49.074;9.158;2023-11-19T00:05:02;7.00;7.00;6.00
34176;PMS7003;20450;49.074;9.158;2023-11-19T00:07:33;6.00;4.00;4.00
34176;PMS7003;20450;49.074;9.158;2023-11-19T00:10:01;9.00;9.00;7.25
34176;PMS7003;20450;49.074;9.158;2023-11-19T00:12:32;12.00;12.00;9.25
34176;PMS7003;20450;49.074;9.158;2023-11-19T00:14:59;12.75;11.75;10.00
34176;PMS7003;20450;49.074;9.158;2023-11-19T00:17:28;9.00;7.00;6.00
34176;PMS7003;20450;49.074;9.158;2023-11-19T00:19:59;9.75;9.00;6.00
34176;PMS7003;20450;49.074;9.158;2023-11-19T00:22:30;9.00;9.00;6.00
34176;PMS7003;20450;49.074;9.158;2023-11-19T00:24:57;8.00;8.00;6.00
34176;PMS7003;20450;49.074;9.158;2023-11-19T00:27:29;4.00;2.00;1.00
34176;PMS7003;20450;49.074;9.158;2023-11-19T00:29:59;3.00;3.00;1.50
34176;PMS7003;20450;49.074;9.158;2023-11-19T00:32:27;8.50;6.25;5.50
34176;PMS7003;20450;49.074;9.158;2023-11-19T00:34:55;7.00;6.00;4.00
34176;PMS7003;20450;49.074;9.158;2023-11-19T00:37:22;7.00;7.00;6.00
34176;PMS7003;20450;49.074;9.158;2023-11-19T00:39:51;7.00;6.50;5.00
34176;PMS7003;20450;49.074;9.158;2023-11-19T00:42:18;7.00;6.00;5.00
34176;PMS7003;20450;49.074;9.158;2023-11-19T00:44:46;7.00;6.00;4.00
34176;PMS7003;20450;49.074;9.158;2023-11-19T00:47:22;3.25;2.00;2.00
34176;PMS7003;20450;49.074;9.158;2023-11-19T00:49:51;10.00;6.00;4.00
34176;PMS7003;20450;49.074;9.158;2023-11-19T00:52:19;6.50;6.50;4.00
34176;PMS7003;20450;49.074;9.158;2023-11-19T00:54:46;8.50;8.50;6.00
34176;PMS7003;20450;49.074;9.158;2023-11-19T00:57:14;10.50;10.50;8.25
34176;PMS7003;20450;49.074;9.158;2023-11-19T00:59:50;11.00;10.00;8.50
34176;PMS7003;20450;49.074;9.158;2023-11-19T01:02:17;8.50;4.00;4.00
34176;PMS7003;20450;49.074;9.158;2023-11-19T01:04:46;6.00;6.00;3.25
34176;PMS7003;20450;49.074;9.158;2023-11-19T01:07:13;6.00;6.00;5.50
34176;PMS7003;20450;49.074;9.158;2023-11-19T01:09:41;5.00;3.25;3.00
34176;PMS7003;20450;49.074;9.158;2023-11-19T01:12:10;11.00;9.25;5.50
34176;PMS7003;20450;49.074;9.158;2023-11-19T01:14:40;5.50;4.25;2.50
34176;PMS7003;20450;49.074;9.158;2023-11-19T01:17:15;6.50;6.25;4.00
34176;PMS7003;20450;49.074;9.158;2023-11-19T01:19:42;7.00;6.00;5.00
34176;PMS7003;20450;49.074;9.158;2023-11-19T01:22:14;4.00;4.00;3.25
34176;PMS7003;20450;49.074;9.158;2023-11-19T01:24:44;8.25;7.00;6.00
34176;PMS7003;20450;49.074;9.158;2023-11-19T01:27:12;4.00;4.00;3.75
34176;PMS7003;20450;49.074;9.158;2023-11-19T01:29:41;6.50;5.00;3.25
34176;PMS7003;20450;49.074;9.158;2023-11-19T01:32:10;1.50;1.50;1.50
34176;PMS7003;20450;49.074;9.158;2023-11-19T01:34:37;4.00;4.00;3.50
34176;PMS7003;20450;49.074;9.158;2023-11-19T01:37:05;0.00;0.00;0.00
34176;PMS7003;20450;49.074;9.158;2023-11-19T01:39:35;4.00;3.25;2.50
34176;PMS7003;20450;49.074;9.158;2023-11-19T01:42:04;4.50;3.00;2.50
34176;PMS7003;20450;49.074;9.158;2023-11-19T01:44:32;4.75;3.75;3.00
34176;PMS7003;20450;49.074;9.158;2023-11-19T01:47:01;5.75;3.75;3.75
34176;PMS7003;20450;49.074;9.158;2023-11-19T01:49:29;4.00;4.00;3.25
34176;PMS7003;20450;49.074;9.158;2023-11-19T01:52:01;5.00;5.00;3.50
34176;PMS7003;20450;49.074;9.158;2023-11-19T01:54:28;5.50;5.50;3.75
34176;PMS7003;20450;49.074;9.158;2023-11-19T01:56:58;5.50;5.50;4.00
34176;PMS7003;20450;49.074;9.158;2023-11-19T01:59:27;4.00;4.00;3.00
34176;PMS7003;20450;49.074;9.158;2023-11-19T02:01:54;8.75;7.00;6.00
34176;PMS7003;20450;49.074;9.158;2023-11-19T02:04:25;23.50;14.50;8.75
34176;PMS7003;20450;49.074;9.158;2023-11-19T02:06:54;6.75;6.75;6.00
34176;PMS7003;20450;49.074;9.158;2023-11-19T02:09:24;6.75;6.75;5.50
34176;PMS7003;20450;49.074;9.158;2023-11-19T02:11:52;7.50;7.50;4.00
34176;PMS7003;20450;49.074;9.158;2023-11-19T02:14:25;6.50;6.00;4.00
34176;PMS7003;20450;49.074;9.158;2023-11-19T02:16:54;4.50;4.50;3.75
34176;PMS7003;20450;49.074;9.158;2023-11-19T02:19:21;9.00;6.50;5.00
34176;PMS7003;20450;49.074;9.158;2023-11-19T02:21:49;5.50;5.50;4.00
34176;PMS7003;20450;49.074;9.158;2023-11-19T02:24:19;6.50;6.50;4.00
34176;PMS7003;20450;49.074;9.158;2023-11-19T02:26:58;5.00;5.00;3.00
34176;PMS7003;20450;49.074;9.158;2023-11-19T02:29:39;6.50;5.50;4.00
34176;PMS7003;20450;49.074;9.158;2023-11-19T02:32:08;9.00;9.00;6.75
34176;PMS7003;20450;49.074;9.158;2023-11-19T02:34:36;6.50;5.00;4.00
34176;PMS7003;20450;49.074;9.158;2023-11-19T02:37:07;12.25;7.00;6.00
34176;PMS7003;20450;49.074;9.158;2023-11-19T02:39:35;9.00;7.00;5.50
34176;PMS7003;20450;49.074;9.158;2023-11-19T02:42:04;9.25;7.00;5.00
34176;PMS7003;20450;49.074;9.158;2023-11-19T02:44:34;8.00;7.50;6.00
34176;PMS7003;20450;49.074;9.158;2023-11-19T02:47:04;9.00;6.75;6.25
34176;PMS7003;20450;49.074;9.158;2023-11-19T02:49:35;4.50;3.25;1.00
34176;PMS7003;20450;49.074;9.158;2023-11-19T02:52:03;10.25;8.50;6.50
34176;PMS7003;20450;49.074;9.158;2023-11-19T02:54:34;14.00;11.00;7.50
34176;PMS7003;20450;49.074;9.158;2023-11-19T02:57:01;8.50;8.50;6.25
34176;PMS7003;20450;49.074;9.158;2023-11-19T02:59:29;10.50;9.00;6.25
34176;PMS7003;20450;49.074;9.158;2023-11-19T03:01:57;1.50;1.50;0.00
34176;PMS7003;20450;49.074;9.158;2023-11-19T03:04:29;1.50;1.50;0.25
34176;PMS7003;20450;49.074;9.158;2023-11-19T03:06:58;7.50;7.00;4.50
34176;PMS7003;20450;49.074;9.158;2023-11-19T03:09:29;9.00;9.00;6.00
34176;PMS7003;20450;49.074;9.158;2023-11-19T03:12:00;13.75;10.00;8.75
34176;PMS7003;20450;49.074;9.158;2023-11-19T03:14:29;10.50;6.25;5.00
34176;PMS7003;20450;49.074;9.158;2023-11-19T03:16:59;17.50;16.50;12.50
34176;PMS7003;20450;49.074;9.158;2023-11-19T03:19:31;20.50;18.25;13.75
34176;PMS7003;20450;49.074;9.158;2023-11-19T03:21:59;20.25;18.50;15.25
34176;PMS7003;20450;49.074;9.158;2023-11-19T03:24:28;17.50;16.25;13.50
34176;PMS7003;20450;49.074;9.158;2023-11-19T03:26:58;15.50;15.50;10.75
34176;PMS7003;20450;49.074;9.158;2023-11-19T03:29:27;7.00;7.00;6.00
34176;PMS7003;20450;49.074;9.158;2023-11-19T03:31:56;9.75;9.25;6.25
34176;PMS7003;20450;49.074;9.158;2023-11-19T03:34:27;10.50;9.00;4.50
34176;PMS7003;20450;49.074;9.158;2023-11-19T03:36:57;8.50;7.50;5.50
34176;PMS7003;20450;49.074;9.158;2023-11-19T03:39:24;5.00;3.25;3.00
34176;PMS7003;20450;49.074;9.158;2023-11-19T03:41:52;6.75;6.75;3.50
34176;PMS7003;20450;49.074;9.158;2023-11-19T03:44:21;6.25;5.50;3.75
34176;PMS7003;20450;49.074;9.158;2023-11-19T03:46:53;10.50;9.25;7.00
34176;PMS7003;20450;49.074;9.158;2023-11-19T03:49:22;8.00;8.00;6.25
34176;PMS7003;20450;49.074;9.158;2023-11-19T03:51:52;8.00;6.75;6.25
34176;PMS7003;20450;49.074;9.158;2023-11-19T03:54:23;10.00;7.00;6.75
34176;PMS7003;20450;49.074;9.158;2023-11-19T03:56:50;7.00;7.00;6.00
34176;PMS7003;20450;49.074;9.158;2023-11-19T03:59:17;6.00;6.00;5.00
34176;PMS7003;20450;49.074;9.158;2023-11-19T04:01:45;8.50;6.00;3.75
34176;PMS7003;20450;49.074;9.158;2023-11-19T04:04:13;12.75;8.00;6.25
34176;PMS7003;20450;49.074;9.158;2023-11-19T04:06:43;6.75;4.00;3.75
34176;PMS7003;20450;49.074;9.158;2023-11-19T04:09:10;12.75;8.50;5.00
34176;PMS7003;20450;49.074;9.158;2023-11-19T04:11:39;6.25;6.25;4.00
34176;PMS7003;20450;49.074;9.158;2023-11-19T04:14:06;9.25;7.25;6.00
34176;PMS7003;20450;49.074;9.158;2023-11-19T04:16:34;6.00;5.00;3.75
34176;PMS7003;20450;49.074;9.158;2023-11-19T04:19:02;7.00;7.00;6.00
34176;PMS7003;20450;49.074;9.158;2023-11-19T04:21:29;2.00;2.00;0.75
34176;PMS7003;20450;49.074;9.158;2023-11-19T04:23:57;6.25;6.00;3.50
34176;PMS7003;20450;49.074;9.158;2023-11-19T04:26:24;8.00;8.00;4.50
34176;PMS7003;20450;49.074;9.158;2023-11-19T04:28:53;2.75;2.75;2.00
34176;PMS7003;20450;49.074;9.158;2023-11-19T04:31:23;3.00;3.00;3.00
34176;PMS7003;20450;49.074;9.158;2023-11-19T04:33:52;1.00;1.00;1.00
34176;PMS7003;20450;49.074;9.158;2023-11-19T04:36:19;1.00;1.00;1.00
34176;PMS7003;20450;49.074;9.158;2023-11-19T04:38:47;1.00;1.00;1.00
34176;PMS7003;20450;49.074;9.158;2023-11-19T04:41:14;1.00;1.00;0.00
34176;PMS7003;20450;49.074;9.158;2023-11-19T04:43:41;0.00;0.00;0.00
34176;PMS7003;20450;49.074;9.158;2023-11-19T04:46:10;0.00;0.00;0.00
34176;PMS7003;20450;49.074;9.158;2023-11-19T04:48:38;1.00;1.00;0.00
34176;PMS7003;20450;49.074;9.158;2023-11-19T04:51:08;0.00;0.00;0.00
34176;PMS7003;20450;49.074;9.158;2023-11-19T04:53:35;0.00;0.00;0.00
34176;PMS7003;20450;49.074;9.158;2023-11-19T04:56:08;0.00;0.00;0.00
34176;PMS7003;20450;49.074;9.158;2023-11-19T04:58:37;0.00;0.00;0.00
34176;PMS7003;20450;49.074;9.158;2023-11-19T05:01:05;1.00;0.00;0.00
34176;PMS7003;20450;49.074;9.158;2023-11-19T05:03:41;1.00;0.00;0.00
34176;PMS7003;20450;49.074;9.158;2023-11-19T05:06:10;0.00;0.00;0.00
34176;PMS7003;20450;49.074;9.158;2023-11-19T05:08:37;0.00;0.00;0.00
34176;PMS7003;20450;49.074;9.158;2023-11-19T05:11:05;0.00;0.00;0.00
34176;PMS7003;20450;49.074;9.158;2023-11-19T05:13:33;0.00;0.00;0.00
34176;PMS7003;20450;49.074;9.158;2023-11-19T05:16:05;1.00;0.00;0.00
34176;PMS7003;20450;49.074;9.158;2023-11-19T05:18:34;0.00;0.00;0.00
34176;PMS7003;20450;49.074;9.158;2023-11-19T05:21:03;0.33;0.00;0.00
34176;PMS7003;20450;49.074;9.158;2023-11-19T05:23:31;0.00;0.00;0.00
34176;PMS7003;20450;49.074;9.158;2023-11-19T05:25:58;0.00;0.00;0.00
34176;PMS7003;20450;49.074;9.158;2023-11-19T05:28:29;0.00;0.00;0.00
34176;PMS7003;20450;49.074;9.158;2023-11-19T05:30:57;0.00;0.00;0.00
34176;PMS7003;20450;49.074;9.158;2023-11-19T05:33:25;0.00;0.00;0.00
34176;PMS7003;20450;49.074;9.158;2023-11-19T05:35:53;0.00;0.00;0.00
34176;PMS7003;20450;49.074;9.158;2023-11-19T05:38:22;0.00;0.00;0.00
34176;PMS7003;20450;49.074;9.158;2023-11-19T05:40:49;0.00;0.00;0.00
34176;PMS7003;20450;49.074;9.158;2023-11-19T05:43:17;0.00;0.00;0.00
34176;PMS7003;20450;49.074;9.158;2023-11-19T05:45:44;0.00;0.00;0.00
34176;PMS7003;20450;49.074;9.158;2023-11-19T05:48:11;0.00;0.00;0.00
34176;PMS7003;20450;49.074;9.158;2023-11-19T05:50:43;0.00;0.00;0.00
34176;PMS7003;20450;49.074;9.158;2023-11-19T05:53:12;0.00;0.00;0.00
34176;PMS7003;20450;49.074;9.158;2023-11-19T05:55:53;0.00;0.00;0.00
34176;PMS7003;20450;49.074;9.158;2023-11-19T05:58:23;0.00;0.00;0.00
34176;PMS7003;20450;49.074;9.158;2023-11-19T06:00:52;0.00;0.00;0.00
34176;PMS7003;20450;49.074;9.158;2023-11-19T06:03:19;0.00;0.00;0.00
34176;PMS7003;20450;49.074;9.158;2023-11-19T06:05:46;0.00;0.00;0.00
34176;PMS7003;20450;49.074;9.158;2023-11-19T06:08:14;0.00;0.00;0.00
34176;PMS7003;20450;49.074;9.158;2023-11-19T06:10:43;0.50;0.00;0.00
34176;PMS7003;20450;49.074;9.158;2023-11-19T06:13:11;0.00;0.00;0.00
34176;PMS7003;20450;49.074;9.158;2023-11-19T06:15:38;1.00;0.00;0.00
34176;PMS7003;20450;49.074;9.158;2023-11-19T06:18:08;0.00;0.00;0.00
34176;PMS7003;20450;49.074;9.158;2023-11-19T06:20:36;0.00;0.00;0.00
34176;PMS7003;20450;49.074;9.158;2023-11-19T06:23:06;0.25;0.00;0.00
34176;PMS7003;20450;49.074;9.158;2023-11-19T06:25:33;0.00;0.00;0.00
34176;PMS7003;20450;49.074;9.158;2023-11-19T06:28:02;0.00;0.00;0.00
34176;PMS7003;20450;49.074;9.158;2023-11-19T06:30:30;0.00;0.00;0.00
34176;PMS7003;20450;49.074;9.158;2023-11-19T06:32:57;0.00;0.00;0.00
34176;PMS7003;20450;49.074;9.158;2023-11-19T06:35:24;0.00;0.00;0.00
34176;PMS7003;20450;49.074;9.158;2023-11-19T06:37:52;0.00;0.00;0.00
34176;PMS7003;20450;49.074;9.158;2023-11-19T06:40:19;3.00;0.00;0.00
34176;PMS7003;20450;49.074;9.158;2023-11-19T06:42:49;0.00;0.00;0.00
34176;PMS7003;20450;49.074;9.158;2023-11-19T06:45:18;0.00;0.00;0.00
34176;PMS7003;20450;49.074;9.158;2023-11-19T06:47:45;0.00;0.00;0.00
34176;PMS7003;20450;49.074;9.158;2023-11-19T06:50:14;0.00;0.00;0.00
34176;PMS7003;20450;49.074;9.158;2023-11-19T06:52:42;1.00;0.00;0.00
34176;PMS7003;20450;49.074;9.158;2023-11-19T06:55:09;0.00;0.00;0.00
34176;PMS7003;20450;49.074;9.158;2023-11-19T06:57:37;0.00;0.00;0.00
34176;PMS7003;20450;49.074;9.158;2023-11-19T07:00:05;0.00;0.00;0.00
34176;PMS7003;20450;49.074;9.158;2023-11-19T07:02:36;0.00;0.00;0.00
34176;PMS7003;20450;49.074;9.158;2023-11-19T07:05:05;0.00;0.00;0.00
34176;PMS7003;20450;49.074;9.158;2023-11-19T07:07:33;0.00;0.00;0.00
34176;PMS7003;20450;49.074;9.158;2023-11-19T07:10:01;0.00;0.00;0.00
34176;PMS7003;20450;49.074;9.158;2023-11-19T07:12:29;0.00;0.00;0.00
34176;PMS7003;20450;49.074;9.158;2023-11-19T07:14:59;0.00;0.00;0.00
34176;PMS7003;20450;49.074;9.158;2023-11-19T07:17:28;0.00;0.00;0.00
34176;PMS7003;20450;49.074;9.158;2023-11-19T07:22:45;0.00;0.00;0.00
34176;PMS7003;20450;49.074;9.158;2023-11-19T07:25:27;0.00;0.00;0.00
34176;PMS7003;20450;49.074;9.158;2023-11-19T07:27:54;0.75;0.75;0.00
34176;PMS7003;20450;49.074;9.158;2023-11-19T07:30:21;0.00;0.00;0.00
34176;PMS7003;20450;49.074;9.158;2023-11-19T07:32:48;0.00;0.00;0.00
34176;PMS7003;20450;49.074;9.158;2023-11-19T07:35:16;2.00;2.00;1.00
34176;PMS7003;20450;49.074;9.158;2023-11-19T07:37:45;0.00;0.00;0.00
34176;PMS7003;20450;49.074;9.158;2023-11-19T07:40:12;0.00;0.00;0.00
34176;PMS7003;20450;49.074;9.158;2023-11-19T07:42:40;0.00;0.00;0.00
34176;PMS7003;20450;49.074;9.158;2023-11-19T07:45:08;0.00;0.00;0.00
34176;PMS7003;20450;49.074;9.158;2023-11-19T07:47:36;0.00;0.00;0.00
34176;PMS7003;20450;49.074;9.158;2023-11-19T07:50:04;0.00;0.00;0.00
34176;PMS7003;20450;49.074;9.158;2023-11-19T07:52:35;0.00;0.00;0.00
34176;PMS7003;20450;49.074;9.158;2023-11-19T07:55:03;0.00;0.00;0.00
34176;PMS7003;20450;49.074;9.158;2023-11-19T07:57:31;0.00;0.00;0.00
34176;PMS7003;20450;49.074;9.158;2023-11-19T07:59:58;0.00;0.00;0.00
34176;PMS7003;20450;49.074;9.158;2023-11-19T08:02:26;0.00;0.00;0.00
34176;PMS7003;20450;49.074;9.158;2023-11-19T08:04:53;0.75;0.75;0.00
34176;PMS7003;20450;49.074;9.158;2023-11-19T08:07:21;0.50;0.50;0.25
34176;PMS7003;20450;49.074;9.158;2023-11-19T08:09:49;0.00;0.00;0.00
34176;PMS7003;20450;49.074;9.158;2023-11-19T08:12:18;0.00;0.00;0.00
34176;PMS7003;20450;49.074;9.158;2023-11-19T08:14:47;0.00;0.00;0.00
34176;PMS7003;20450;49.074;9.158;2023-11-19T08:17:14;0.00;0.00;0.00
34176;PMS7003;20450;49.074;9.158;2023-11-19T08:19:42;0.00;0.00;0.00
34176;PMS7003;20450;49.074;9.158;2023-11-19T08:22:08;1.00;0.00;0.00
34176;PMS7003;20450;49.074;9.158;2023-11-19T08:24:39;0.00;0.00;0.00
34176;PMS7003;20450;49.074;9.158;2023-11-19T08:27:08;0.00;0.00;0.00
34176;PMS7003;20450;49.074;9.158;2023-11-19T08:29:35;0.00;0.00;0.00
34176;PMS7003;20450;49.074;9.158;2023-11-19T08:32:04;0.00;0.00;0.00
34176;PMS7003;20450;49.074;9.158;2023-11-19T08:34:36;0.00;0.00;0.00
34176;PMS7003;20450;49.074;9.158;2023-11-19T08:37:10;0.00;0.00;0.00
34176;PMS7003;20450;49.074;9.158;2023-11-19T08:39:38;0.00;0.00;0.00
34176;PMS7003;20450;49.074;9.158;2023-11-19T08:42:10;0.00;0.00;0.00
34176;PMS7003;20450;49.074;9.158;2023-11-19T08:44:37;1.00;0.00;0.00
34176;PMS7003;20450;49.074;9.158;2023-11-19T08:47:08;0.00;0.00;0.00
34176;PMS7003;20450;49.074;9.158;2023-11-19T08:49:38;3.00;1.00;0.75
34176;PMS7003;20450;49.074;9.158;2023-11-19T08:52:08;0.00;0.00;0.00
34176;PMS7003;20450;49.074;9.158;2023-11-19T08:54:42;0.00;0.00;0.00
34176;PMS7003;20450;49.074;9.158;2023-11-19T08:57:12;0.00;0.00;0.00
34176;PMS7003;20450;49.074;9.158;2023-11-19T08:59:43;0.00;0.00;0.00
34176;PMS7003;20450;49.074;9.158;2023-11-19T09:02:10;0.00;0.00;0.00
34176;PMS7003;20450;49.074;9.158;2023-11-19T09:04:38;0.00;0.00;0.00
34176;PMS7003;20450;49.074;9.158;2023-11-19T09:07:05;0.00;0.00;0.00
34176;PMS7003;20450;49.074;9.158;2023-11-19T09:09:33;0.25;0.25;0.25
34176;PMS7003;20450;49.074;9.158;2023-11-19T09:12:00;0.00;0.00;0.00
34176;PMS7003;20450;49.074;9.158;2023-11-19T09:14:28;0.00;0.00;0.00
34176;PMS7003;20450;49.074;9.158;2023-11-19T09:16:55;0.00;0.00;0.00
34176;PMS7003;20450;49.074;9.158;2023-11-19T09:19:23;0.00;0.00;0.00
34176;PMS7003;20450;49.074;9.158;2023-11-19T09:21:50;0.00;0.00;0.00
34176;PMS7003;20450;49.074;9.158;2023-11-19T09:24:17;0.00;0.00;0.00
34176;PMS7003;20450;49.074;9.158;2023-11-19T09:26:44;0.00;0.00;0.00
34176;PMS7003;20450;49.074;9.158;2023-11-19T09:29:13;0.00;0.00;0.00
34176;PMS7003;20450;49.074;9.158;2023-11-19T09:31:42;0.00;0.00;0.00
34176;PMS7003;20450;49.074;9.158;2023-11-19T09:34:12;0.00;0.00;0.00
34176;PMS7003;20450;49.074;9.158;2023-11-19T09:36:40;0.00;0.00;0.00
34176;PMS7003;20450;49.074;9.158;2023-11-19T09:39:08;0.20;0.20;0.00
34176;PMS7003;20450;49.074;9.158;2023-11-19T09:41:35;0.00;0.00;0.00
34176;PMS7003;20450;49.074;9.158;2023-11-19T09:44:03;0.00;0.00;0.00
34176;PMS7003;20450;49.074;9.158;2023-11-19T09:46:30;0.00;0.00;0.00
34176;PMS7003;20450;49.074;9.158;2023-11-19T09:49:01;0.00;0.00;0.00
34176;PMS7003;20450;49.074;9.158;2023-11-19T09:51:31;0.00;0.00;0.00
34176;PMS7003;20450;49.074;9.158;2023-11-19T09:53:58;1.00;1.00;0.00
34176;PMS7003;20450;49.074;9.158;2023-11-19T09:56:25;0.00;0.00;0.00
34176;PMS7003;20450;49.074;9.158;2023-11-19T09:58:59;0.00;0.00;0.00
34176;PMS7003;20450;49.074;9.158;2023-11-19T10:01:26;0.00;0.00;0.00
34176;PMS7003;20450;49.074;9.158;2023-11-19T10:03:55;0.00;0.00;0.00
34176;PMS7003;20450;49.074;9.158;2023-11-19T10:06:24;0.00;0.00;0.00
34176;PMS7003;20450;49.074;9.158;2023-11-19T10:08:52;0.00;0.00;0.00
34176;PMS7003;20450;49.074;9.158;2023-11-19T10:11:19;0.00;0.00;0.00
34176;PMS7003;20450;49.074;9.158;2023-11-19T10:13:47;0.00;0.00;0.00
34176;PMS7003;20450;49.074;9.158;2023-11-19T10:16:18;0.80;0.00;0.00
34176;PMS7003;20450;49.074;9.158;2023-11-19T10:18:46;0.00;0.00;0.00
34176;PMS7003;20450;49.074;9.158;2023-11-19T10:21:19;0.00;0.00;0.00
34176;PMS7003;20450;49.074;9.158;2023-11-19T10:24:17;0.00;0.00;0.00
34176;PMS7003;20450;49.074;9.158;2023-11-19T10:26:59;0.00;0.00;0.00
34176;PMS7003;20450;49.074;9.158;2023-11-19T10:29:30;0.00;0.00;0.00
34176;PMS7003;20450;49.074;9.158;2023-11-19T10:32:05;0.00;0.00;0.00
34176;PMS7003;20450;49.074;9.158;2023-11-19T10:34:52;0.00;0.00;0.00
34176;PMS7003;20450;49.074;9.158;2023-11-19T10:37:33;0.00;0.00;0.00
34176;PMS7003;20450;49.074;9.158;2023-11-19T10:40:01;0.00;0.00;0.00
34176;PMS7003;20450;49.074;9.158;2023-11-19T10:42:34;0.00;0.00;0.00
34176;PMS7003;20450;49.074;9.158;2023-11-19T10:45:01;0.20;0.00;0.00
34176;PMS7003;20450;49.074;9.158;2023-11-19T10:47:33;0.00;0.00;0.00
34176;PMS7003;20450;49.074;9.158;2023-11-19T10:50:13;0.00;0.00;0.00
34176;PMS7003;20450;49.074;9.158;2023-11-19T10:52:40;0.00;0.00;0.00
34176;PMS7003;20450;49.074;9.158;2023-11-19T10:55:09;0.00;0.00;0.00
34176;PMS7003;20450;49.074;9.158;2023-11-19T10:57:42;0.00;0.00;0.00
34176;PMS7003;20450;49.074;9.158;2023-11-19T11:00:16;0.00;0.00;0.00
34176;PMS7003;20450;49.074;9.158;2023-11-19T11:02:54;0.00;0.00;0.00
34176;PMS7003;20450;49.074;9.158;2023-11-19T11:05:27;0.00;0.00;0.00
34176;PMS7003;20450;49.074;9.158;2023-11-19T11:07:58;0.00;0.00;0.00
34176;PMS7003;20450;49.074;9.158;2023-11-19T11:10:30;0.00;0.00;0.00
34176;PMS7003;20450;49.074;9.158;2023-11-19T11:13:23;0.00;0.00;0.00
34176;PMS7003;20450;49.074;9.158;2023-11-19T11:15:51;0.00;0.00;0.00
34176;PMS7003;20450;49.074;9.158;2023-11-19T11:18:20;0.00;0.00;0.00
34176;PMS7003;20450;49.074;9.158;2023-11-19T11:20:47;0.00;0.00;0.00
34176;PMS7003;20450;49.074;9.158;2023-11-19T11:23:23;0.00;0.00;0.00
34176;PMS7003;20450;49.074;9.158;2023-11-19T11:26:21;0.00;0.00;0.00
34176;PMS7003;20450;49.074;9.158;2023-11-19T11:29:13;1.00;0.00;0.00
34176;PMS7003;20450;49.074;9.158;2023-11-19T11:31:58;1.80;1.80;0.80
34176;PMS7003;20450;49.074;9.158;2023-11-19T11:34:53;0.00;0.00;0.00
34176;PMS7003;20450;49.074;9.158;2023-11-19T11:37:49;0.00;0.00;0.00
34176;PMS7003;20450;49.074;9.158;2023-11-19T11:40:27;0.00;0.00;0.00
34176;PMS7003;20450;49.074;9.158;2023-11-19T11:42:59;1.80;0.00;0.00
34176;PMS7003;20450;49.074;9.158;2023-11-19T11:45:35;0.00;0.00;0.00
34176;PMS7003;20450;49.074;9.158;2023-11-19T11:48:06;0.00;0.00;0.00
34176;PMS7003;20450;49.074;9.158;2023-11-19T11:50:47;0.00;0.00;0.00
34176;PMS7003;20450;49.074;9.158;2023-11-19T11:53:35;1.00;1.00;1.00
34176;PMS7003;20450;49.074;9.158;2023-11-19T11:56:17;0.00;0.00;0.00
34176;PMS7003;20450;49.074;9.158;2023-11-19T11:58:49;0.00;0.00;0.00
34176;PMS7003;20450;49.074;9.158;2023-11-19T12:01:17;0.00;0.00;0.00
34176;PMS7003;20450;49.074;9.158;2023-11-19T12:03:44;0.20;0.20;0.00
34176;PMS7003;20450;49.074;9.158;2023-11-19T12:06:20;0.60;0.00;0.00
34176;PMS7003;20450;49.074;9.158;2023-11-19T12:08:50;0.00;0.00;0.00
34176;PMS7003;20450;49.074;9.158;2023-11-19T12:11:21;0.00;0.00;0.00
34176;PMS7003;20450;49.074;9.158;2023-11-19T12:13:54;0.40;0.40;0.00
34176;PMS7003;20450;49.074;9.158;2023-11-19T12:16:23;0.00;0.00;0.00
34176;PMS7003;20450;49.074;9.158;2023-11-19T12:18:50;0.00;0.00;0.00
34176;PMS7003;20450;49.074;9.158;2023-11-19T12:21:28;0.20;0.20;0.00
34176;PMS7003;20450;49.074;9.158;2023-11-19T12:23:57;0.00;0.00;0.00
34176;PMS7003;20450;49.074;9.158;2023-11-19T12:26:33;1.40;0.00;0.00
34176;PMS7003;20450;49.074;9.158;2023-11-19T12:29:05;0.00;0.00;0.00
34176;PMS7003;20450;49.074;9.158;2023-11-19T12:31:35;1.00;0.00;0.00
34176;PMS7003;20450;49.074;9.158;2023-11-19T12:34:09;0.00;0.00;0.00
34176;PMS7003;20450;49.074;9.158;2023-11-19T12:36:43;0.00;0.00;0.00
34176;PMS7003;20450;49.074;9.158;2023-11-19T12:39:13;0.00;0.00;0.00
34176;PMS7003;20450;49.074;9.158;2023-11-19T12:41:49;0.00;0.00;0.00
34176;PMS7003;20450;49.074;9.158;2023-11-19T12:44:20;0.40;0.40;0.40
34176;PMS7003;20450;49.074;9.158;2023-11-19T12:46:58;0.00;0.00;0.00
34176;PMS7003;20450;49.074;9.158;2023-11-19T12:49:29;3.20;1.80;0.00
34176;PMS7003;20450;49.074;9.158;2023-11-19T12:51:57;1.00;0.00;0.00
34176;PMS7003;20450;49.074;9.158;2023-11-19T12:54:33;2.20;1.00;0.20
34176;PMS7003;20450;49.074;9.158;2023-11-19T12:57:01;0.80;0.80;0.80
34176;PMS7003;20450;49.074;9.158;2023-11-19T12:59:30;1.00;0.00;0.00
34176;PMS7003;20450;49.074;9.158;2023-11-19T13:02:07;0.00;0.00;0.00
34176;PMS7003;20450;49.074;9.158;2023-11-19T13:04:35;0.00;0.00;0.00
34176;PMS7003;20450;49.074;9.158;2023-11-19T13:07:02;1.00;0.00;0.00
34176;PMS7003;20450;49.074;9.158;2023-11-19T13:09:31;0.00;0.00;0.00
34176;PMS7003;20450;49.074;9.158;2023-11-19T13:11:58;0.00;0.00;0.00
34176;PMS7003;20450;49.074;9.158;2023-11-19T13:14:36;0.00;0.00;0.00
34176;PMS7003;20450;49.074;9.158;2023-11-19T13:17:04;0.80;0.00;0.00
34176;PMS7003;20450;49.074;9.158;2023-11-19T13:19:31;0.00;0.00;0.00
34176;PMS7003;20450;49.074;9.158;2023-11-19T13:21:59;0.00;0.00;0.00
34176;PMS7003;20450;49.074;9.158;2023-11-19T13:24:26;0.00;0.00;0.00
34176;PMS7003;20450;49.074;9.158;2023-11-19T13:26:54;0.00;0.00;0.00
34176;PMS7003;20450;49.074;9.158;2023-11-19T13:29:24;0.00;0.00;0.00
34176;PMS7003;20450;49.074;9.158;2023-11-19T13:31:57;0.00;0.00;0.00
34176;PMS7003;20450;49.074;9.158;2023-11-19T13:34:25;1.00;1.00;0.80
34176;PMS7003;20450;49.074;9.158;2023-11-19T13:36:54;0.00;0.00;0.00
34176;PMS7003;20450;49.074;9.158;2023-11-19T13:39:22;0.00;0.00;0.00
34176;PMS7003;20450;49.074;9.158;2023-11-19T13:41:54;0.20;0.20;0.00
34176;PMS7003;20450;49.074;9.158;2023-11-19T13:44:39;0.00;0.00;0.00
34176;PMS7003;20450;49.074;9.158;2023-11-19T13:47:07;0.00;0.00;0.00
34176;PMS7003;20450;49.074;9.158;2023-11-19T13:49:36;0.00;0.00;0.00
34176;PMS7003;20450;49.074;9.158;2023-11-19T13:52:03;0.00;0.00;0.00
34176;PMS7003;20450;49.074;9.158;2023-11-19T13:54:30;2.00;1.80;0.00
34176;PMS7003;20450;49.074;9.158;2023-11-19T13:56:59;0.00;0.00;0.00
34176;PMS7003;20450;49.074;9.158;2023-11-19T13:59:26;0.00;0.00;0.00
34176;PMS7003;20450;49.074;9.158;2023-11-19T14:01:53;0.00;0.00;0.00
34176;PMS7003;20450;49.074;9.158;2023-11-19T14:04:21;0.00;0.00;0.00
34176;PMS7003;20450;49.074;9.158;2023-11-19T14:06:48;0.00;0.00;0.00
34176;PMS7003;20450;49.074;9.158;2023-11-19T14:09:16;1.00;0.00;0.00
34176;PMS7003;20450;49.074;9.158;2023-11-19T14:11:43;0.80;0.00;0.00
34176;PMS7003;20450;49.074;9.158;2023-11-19T14:14:10;0.00;0.00;0.00
34176;PMS7003;20450;49.074;9.158;2023-11-19T14:16:37;0.00;0.00;0.00
34176;PMS7003;20450;49.074;9.158;2023-11-19T14:19:07;0.00;0.00;0.00
34176;PMS7003;20450;49.074;9.158;2023-11-19T14:21:36;0.00;0.00;0.00
34176;PMS7003;20450;49.074;9.158;2023-11-19T14:24:06;0.00;0.00;0.00
34176;PMS7003;20450;49.074;9.158;2023-11-19T14:26:33;1.20;0.00;0.00
34176;PMS7003;20450;49.074;9.158;2023-11-19T14:29:02;0.40;0.00;0.00
34176;PMS7003;20450;49.074;9.158;2023-11-19T14:31:29;0.00;0.00;0.00
34176;PMS7003;20450;49.074;9.158;2023-11-19T14:33:56;0.00;0.00;0.00
34176;PMS7003;20450;49.074;9.158;2023-11-19T14:36:23;1.00;0.00;0.00
34176;PMS7003;20450;49.074;9.158;2023-11-19T14:38:54;0.00;0.00;0.00